Time;durP1;ratioP1;P1;durP2;ratioP2;P2;SDS_P1;SDS_P2;PMS_P1;PMS_P2;Temp;Humidity;BMP_temperature;BMP_pressure;BME280_temperature;BME280_humidity;BME280_pressure;Samples;Min_cycle;Max_cycle;Signal;HPM_P1;HPM_P2
2021/10/16 00:00:44;;;;;;;10.60;3.33;;;8.50;99.90;;;;;;5006862;28;20220;-51
2021/10/16 00:03:11;;;;;;;9.27;3.70;;;8.60;99.90;;;;;;5007203;28;20536;-51
2021/10/16 00:05:38;;;;;;;6.10;2.70;;;8.70;99.90;;;;;;5007374;28;20232;-51
2021/10/16 00:08:05;;;;;;;7.13;2.83;;;8.50;99.90;;;;;;5006810;28;20658;-50
2021/10/16 00:10:32;;;;;;;6.17;2.80;;;8.30;99.90;;;;;;5005986;28;20211;-50
2021/10/16 00:12:59;;;;;;;8.10;3.27;;;8.30;99.90;;;;;;5006591;28;20675;-50
2021/10/16 00:15:26;;;;;;;6.63;2.90;;;8.30;99.90;;;;;;5007042;28;20241;-50
2021/10/16 00:17:53;;;;;;;8.37;2.70;;;8.40;99.90;;;;;;5008285;28;20205;-50
2021/10/16 00:20:20;;;;;;;5.80;2.93;;;8.00;99.90;;;;;;5005984;28;20640;-50
2021/10/16 00:22:52;;;;;;;7.17;3.13;;;7.90;99.90;;;;;;5005925;28;20213;-49
2021/10/16 00:25:19;;;;;;;4.23;2.60;;;8.10;99.90;;;;;;5006691;28;20194;-49
2021/10/16 00:27:45;;;;;;;7.70;3.03;;;8.20;99.90;;;;;;5007340;28;20347;-50
2021/10/16 00:30:12;;;;;;;6.80;3.43;;;8.20;99.90;;;;;;5006316;28;20631;-49
2021/10/16 00:32:39;;;;;;;5.83;3.07;;;8.20;99.90;;;;;;5006589;28;20585;-50
2021/10/16 00:35:06;;;;;;;8.50;3.13;;;8.10;99.90;;;;;;5005075;28;20228;-50
2021/10/16 00:37:33;;;;;;;6.60;3.37;;;8.20;99.90;;;;;;5007590;28;20299;-50
2021/10/16 00:40:00;;;;;;;5.50;3.13;;;8.30;99.90;;;;;;5005346;28;20806;-49
2021/10/16 00:42:27;;;;;;;5.50;3.07;;;8.30;99.90;;;;;;5007890;28;20591;-49
2021/10/16 00:44:57;;;;;;;9.03;3.70;;;8.40;99.90;;;;;;5006506;28;20229;-49
2021/10/16 00:47:24;;;;;;;4.83;2.97;;;8.40;99.90;;;;;;5008014;28;20199;-49
2021/10/16 00:49:51;;;;;;;3.83;2.90;;;8.30;99.90;;;;;;5006184;28;20948;-50
2021/10/16 00:52:19;;;;;;;9.20;3.60;;;8.30;99.90;;;;;;5004926;28;20264;-50
2021/10/16 00:54:45;;;;;;;9.57;3.63;;;8.40;99.90;;;;;;5009750;28;20569;-49
2021/10/16 00:57:13;;;;;;;7.37;3.77;;;8.50;99.90;;;;;;5010777;28;20230;-49
2021/10/16 00:59:40;;;;;;;9.50;3.47;;;8.50;99.90;;;;;;5011412;28;20296;-49
2021/10/16 01:02:07;;;;;;;7.17;3.70;;;8.50;99.90;;;;;;5009474;28;20230;-49
2021/10/16 01:04:34;;;;;;;8.73;3.87;;;8.50;99.90;;;;;;5011164;28;20268;-49
2021/10/16 01:07:01;;;;;;;7.77;4.30;;;8.60;99.90;;;;;;5006402;28;20262;-50
2021/10/16 01:09:28;;;;;;;12.03;3.87;;;8.60;99.90;;;;;;5011157;28;20304;-49
2021/10/16 01:11:58;;;;;;;7.77;3.97;;;8.80;99.90;;;;;;5010194;28;20671;-50
2021/10/16 01:14:25;;;;;;;7.20;3.90;;;8.80;99.90;;;;;;5010847;28;20209;-49
2021/10/16 01:16:53;;;;;;;6.60;3.53;;;8.90;99.90;;;;;;5010771;28;20728;-50
2021/10/16 01:19:22;;;;;;;10.27;3.60;;;8.80;99.90;;;;;;5010829;28;20227;-50
2021/10/16 01:21:55;;;;;;;9.37;3.30;;;8.60;99.90;;;;;;5008500;28;20205;-50
2021/10/16 01:24:22;;;;;;;8.33;4.30;;;8.50;99.90;;;;;;5009161;28;20275;-50
2021/10/16 01:26:50;;;;;;;7.87;4.47;;;8.60;99.90;;;;;;5007999;28;20655;-49
2021/10/16 01:29:23;;;;;;;5.90;3.40;;;8.70;99.90;;;;;;5009936;28;20198;-50
2021/10/16 01:31:51;;;;;;;10.53;4.00;;;8.80;99.90;;;;;;5009708;28;20232;-49
2021/10/16 01:34:18;;;;;;;7.70;4.00;;;8.70;99.90;;;;;;5007678;28;20201;-50
2021/10/16 01:36:47;;;;;;;4.67;3.77;;;8.90;99.90;;;;;;5008664;28;20767;-51
2021/10/16 01:39:14;;;;;;;9.83;4.00;;;9.00;99.90;;;;;;5007894;28;20634;-51
2021/10/16 01:41:42;;;;;;;8.03;3.50;;;9.00;99.90;;;;;;5007074;28;20220;-51
2021/10/16 01:44:09;;;;;;;10.47;3.70;;;9.00;99.90;;;;;;5008556;28;20718;-51
2021/10/16 01:46:36;;;;;;;6.70;3.80;;;9.00;99.90;;;;;;5010204;28;20248;-51
2021/10/16 01:49:12;;;;;;;8.30;3.50;;;9.00;99.90;;;;;;5008918;28;20716;-50
2021/10/16 01:51:40;;;;;;;7.30;3.93;;;9.10;99.90;;;;;;5008922;28;20260;-50
2021/10/16 01:54:07;;;;;;;6.63;4.57;;;9.10;99.90;;;;;;5009196;28;20643;-50
2021/10/16 01:56:35;;;;;;;10.07;4.10;;;9.10;99.90;;;;;;5007321;28;20270;-50
2021/10/16 01:59:16;;;;;;;8.23;4.10;;;9.00;99.90;;;;;;5008566;28;20255;-51
2021/10/16 02:02:03;;;;;;;10.57;4.10;;;9.00;99.90;;;;;;5007791;28;20254;-50
2021/10/16 02:04:30;;;;;;;9.80;2.97;;;8.90;99.90;;;;;;5007217;28;20197;-50
2021/10/16 02:06:57;;;;;;;8.50;4.07;;;8.90;99.90;;;;;;5006551;28;20256;-51
2021/10/16 02:09:23;;;;;;;6.87;3.27;;;9.10;99.90;;;;;;5008679;28;20229;-50
2021/10/16 02:11:50;;;;;;;7.77;3.70;;;9.10;99.90;;;;;;5009598;28;20542;-51
2021/10/16 02:14:17;;;;;;;8.17;3.80;;;9.00;99.90;;;;;;5010128;28;20544;-50
2021/10/16 02:16:44;;;;;;;10.13;3.53;;;9.00;99.90;;;;;;5009511;28;20229;-50
2021/10/16 02:19:11;;;;;;;6.43;3.20;;;9.10;99.90;;;;;;5008613;28;20748;-51
2021/10/16 02:21:38;;;;;;;14.40;3.93;;;9.20;99.90;;;;;;5007634;28;20190;-55
2021/10/16 02:24:05;;;;;;;7.67;3.33;;;9.40;99.90;;;;;;5009971;28;20648;-51
2021/10/16 02:26:34;;;;;;;8.23;3.10;;;9.30;99.90;;;;;;5008803;28;20314;-51
2021/10/16 02:29:01;;;;;;;10.30;4.03;;;9.40;99.90;;;;;;5010056;28;20248;-51
2021/10/16 02:31:28;;;;;;;5.73;3.20;;;9.30;99.90;;;;;;5007948;28;20201;-51
2021/10/16 02:33:54;;;;;;;6.70;3.87;;;9.40;99.90;;;;;;5008495;28;20209;-51
2021/10/16 02:36:22;;;;;;;10.57;3.50;;;9.50;99.90;;;;;;5008087;28;20308;-51
2021/10/16 02:38:49;;;;;;;7.60;3.00;;;9.40;99.90;;;;;;5008681;28;20205;-51
2021/10/16 02:41:16;;;;;;;7.37;3.20;;;9.10;99.90;;;;;;5006496;28;20767;-51
2021/10/16 02:43:43;;;;;;;6.93;3.43;;;9.30;99.90;;;;;;5009612;28;20283;-50
2021/10/16 02:46:10;;;;;;;7.40;3.67;;;9.30;99.90;;;;;;5006724;28;20224;-50
2021/10/16 02:48:36;;;;;;;9.30;3.00;;;9.30;99.90;;;;;;5004301;28;20275;-51
2021/10/16 02:51:03;;;;;;;10.23;3.20;;;9.20;99.90;;;;;;5007115;28;20772;-51
2021/10/16 02:53:30;;;;;;;8.33;3.17;;;9.40;99.90;;;;;;5007918;28;20290;-50
2021/10/16 02:55:57;;;;;;;10.53;3.60;;;9.40;99.90;;;;;;5009321;28;20255;-51
2021/10/16 02:58:24;;;;;;;8.20;3.73;;;9.10;99.90;;;;;;5008204;28;20232;-50
2021/10/16 03:00:51;;;;;;;6.37;3.70;;;9.00;99.90;;;;;;5006364;28;20650;-50
2021/10/16 03:03:18;;;;;;;7.10;3.20;;;8.90;99.90;;;;;;5008680;28;20201;-50
2021/10/16 03:05:45;;;;;;;8.70;3.93;;;9.00;99.90;;;;;;5006212;28;20205;-50
2021/10/16 03:08:12;;;;;;;11.40;3.27;;;9.20;99.90;;;;;;5008591;28;20913;-50
2021/10/16 03:10:39;;;;;;;7.37;3.57;;;9.30;99.90;;;;;;5009104;28;20194;-50
2021/10/16 03:13:06;;;;;;;8.13;3.33;;;9.40;99.90;;;;;;5007335;28;20306;-50
2021/10/16 03:15:33;;;;;;;8.47;3.50;;;9.50;99.90;;;;;;5008466;28;20197;-51
2021/10/16 03:18:00;;;;;;;5.23;2.70;;;9.40;99.90;;;;;;5006997;28;20351;-50
2021/10/16 03:20:26;;;;;;;9.13;3.57;;;9.50;99.90;;;;;;5006739;28;20193;-50
2021/10/16 03:22:53;;;;;;;7.70;3.60;;;9.40;99.90;;;;;;5008009;28;20206;-50
2021/10/16 03:25:20;;;;;;;5.60;3.13;;;9.50;99.90;;;;;;5004972;28;20203;-51
2021/10/16 03:27:47;;;;;;;8.37;3.40;;;9.50;99.90;;;;;;5005375;28;20666;-50
2021/10/16 03:30:13;;;;;;;7.10;3.57;;;9.50;99.90;;;;;;5006718;28;20251;-50
2021/10/16 03:32:40;;;;;;;7.57;3.40;;;9.60;99.90;;;;;;5008377;28;20614;-50
2021/10/16 03:35:07;;;;;;;7.77;3.27;;;9.60;99.90;;;;;;5007087;28;20199;-51
2021/10/16 03:37:34;;;;;;;5.57;3.40;;;9.60;99.90;;;;;;5006690;28;20735;-50
2021/10/16 03:40:01;;;;;;;7.90;3.27;;;9.60;99.90;;;;;;5007059;28;20223;-51
2021/10/16 03:42:28;;;;;;;7.80;3.20;;;9.60;99.90;;;;;;5006973;28;20231;-50
2021/10/16 03:44:55;;;;;;;10.13;3.10;;;9.60;99.90;;;;;;5006351;28;20219;-49
2021/10/16 03:47:21;;;;;;;8.80;2.97;;;9.60;99.90;;;;;;5008330;28;20298;-51
2021/10/16 03:49:48;;;;;;;7.47;3.40;;;9.70;99.90;;;;;;5008128;28;20493;-51
2021/10/16 03:52:15;;;;;;;7.30;2.67;;;9.70;99.90;;;;;;5006872;28;20282;-51
2021/10/16 03:54:42;;;;;;;7.23;3.33;;;9.70;99.90;;;;;;5008719;28;20228;-50
2021/10/16 03:57:09;;;;;;;9.40;3.07;;;9.70;99.90;;;;;;5005665;28;20212;-51
2021/10/16 03:59:42;;;;;;;10.70;3.00;;;9.80;99.90;;;;;;5007372;28;20586;-51
2021/10/16 04:02:10;;;;;;;8.50;3.40;;;9.70;99.90;;;;;;5008129;28;20268;-51
2021/10/16 04:04:37;;;;;;;9.67;3.53;;;9.80;99.90;;;;;;5006249;28;20292;-51
2021/10/16 04:07:04;;;;;;;7.57;3.67;;;9.80;99.90;;;;;;5004214;28;20226;-51
2021/10/16 04:09:31;;;;;;;9.87;3.30;;;9.80;99.90;;;;;;5007556;28;20736;-51
2021/10/16 04:11:58;;;;;;;6.50;3.50;;;9.70;99.90;;;;;;5006690;28;20217;-51
2021/10/16 04:14:25;;;;;;;5.77;3.47;;;9.60;99.90;;;;;;5006367;28;20583;-50
2021/10/16 04:16:52;;;;;;;13.07;3.73;;;9.70;99.90;;;;;;5006746;28;20326;-51
2021/10/16 04:19:18;;;;;;;7.93;3.13;;;9.70;99.90;;;;;;5008525;28;20195;-50
2021/10/16 04:21:45;;;;;;;7.87;3.73;;;9.70;99.90;;;;;;5006139;28;20310;-51
2021/10/16 04:24:13;;;;;;;7.43;3.00;;;9.70;99.90;;;;;;5006998;28;20243;-50
2021/10/16 04:26:39;;;;;;;7.30;3.33;;;9.70;99.90;;;;;;5007409;28;20331;-51
2021/10/16 04:29:06;;;;;;;7.43;4.00;;;9.80;99.90;;;;;;5010596;28;20218;-51
2021/10/16 04:31:33;;;;;;;5.63;3.37;;;9.90;99.90;;;;;;5011650;28;20298;-50
2021/10/16 04:34:02;;;;;;;8.67;3.00;;;9.80;99.90;;;;;;5010423;28;20350;-51
2021/10/16 04:36:30;;;;;;;5.73;2.90;;;9.80;99.90;;;;;;5007735;28;20264;-51
2021/10/16 04:38:58;;;;;;;5.93;2.80;;;9.80;99.90;;;;;;5009091;28;20194;-51
2021/10/16 04:41:25;;;;;;;8.53;2.63;;;9.80;99.90;;;;;;5008601;28;20193;-51
2021/10/16 04:43:52;;;;;;;6.80;3.23;;;9.80;99.90;;;;;;5009678;28;20252;-51
2021/10/16 04:46:23;;;;;;;4.50;3.00;;;9.60;99.90;;;;;;5008836;28;20198;-51
2021/10/16 04:48:50;;;;;;;8.53;3.30;;;9.50;99.90;;;;;;5011500;28;20655;-51
2021/10/16 04:51:17;;;;;;;8.57;3.07;;;9.50;99.90;;;;;;5009962;28;20198;-51
2021/10/16 04:53:44;;;;;;;7.67;3.17;;;9.60;99.90;;;;;;5026432;28;20197;-51
2021/10/16 04:56:11;;;;;;;5.83;3.13;;;9.80;99.90;;;;;;5010890;28;22251;-51
2021/10/16 04:58:37;;;;;;;11.87;3.33;;;9.80;99.90;;;;;;5008059;28;20202;-49
2021/10/16 05:01:04;;;;;;;7.87;2.90;;;9.80;99.90;;;;;;5009095;28;20598;-49
2021/10/16 05:03:31;;;;;;;7.60;2.83;;;9.80;99.90;;;;;;5010162;28;20229;-49
2021/10/16 05:05:58;;;;;;;6.57;3.00;;;9.80;99.90;;;;;;5008960;28;20197;-51
2021/10/16 05:08:27;;;;;;;4.20;2.73;;;9.70;99.90;;;;;;5009427;28;20964;-51
2021/10/16 05:10:54;;;;;;;8.10;3.37;;;9.80;99.90;;;;;;5009964;28;20212;-51
2021/10/16 05:13:21;;;;;;;7.63;2.50;;;9.80;99.90;;;;;;5010112;28;20255;-51
2021/10/16 05:15:48;;;;;;;9.30;3.00;;;9.70;99.90;;;;;;5010013;28;20228;-49
2021/10/16 05:18:15;;;;;;;8.20;3.27;;;9.80;99.90;;;;;;5011239;28;20229;-51
2021/10/16 05:20:42;;;;;;;6.70;2.50;;;9.80;99.90;;;;;;5009663;28;20278;-48
2021/10/16 05:23:09;;;;;;;5.83;2.70;;;9.80;99.90;;;;;;5007453;28;20243;-49
2021/10/16 05:25:36;;;;;;;8.70;3.57;;;9.80;99.90;;;;;;5008060;28;20287;-51
2021/10/16 05:28:03;;;;;;;6.70;2.80;;;9.80;99.90;;;;;;5010729;28;20204;-51
2021/10/16 05:30:30;;;;;;;6.77;3.00;;;9.80;99.90;;;;;;5010279;28;20960;-51
2021/10/16 05:32:57;;;;;;;8.43;2.90;;;9.80;99.90;;;;;;5006759;28;20245;-50
2021/10/16 05:35:23;;;;;;;6.77;3.10;;;9.90;99.90;;;;;;5007391;28;20237;-50
2021/10/16 05:37:50;;;;;;;7.50;3.10;;;9.80;99.90;;;;;;5005333;28;20237;-51
2021/10/16 05:40:18;;;;;;;8.00;2.67;;;9.80;99.90;;;;;;5008305;28;20189;-50
2021/10/16 05:42:45;;;;;;;6.80;2.80;;;9.70;99.90;;;;;;5007488;28;20227;-51
2021/10/16 05:45:13;;;;;;;5.17;2.63;;;9.80;99.90;;;;;;5007536;28;20612;-52
2021/10/16 05:47:41;;;;;;;8.70;2.80;;;9.80;99.90;;;;;;5008349;28;20272;-51
2021/10/16 05:50:10;;;;;;;5.67;2.70;;;9.90;99.90;;;;;;5009929;28;20207;-51
2021/10/16 05:52:37;;;;;;;9.87;2.50;;;9.70;99.90;;;;;;5008825;28;20233;-51
2021/10/16 05:55:05;;;;;;;7.73;2.90;;;9.70;99.90;;;;;;5009508;28;20293;-51
2021/10/16 05:57:33;;;;;;;6.90;2.70;;;9.80;99.90;;;;;;5008378;28;20202;-50
2021/10/16 06:00:00;;;;;;;5.63;2.70;;;9.90;99.90;;;;;;5009439;28;20201;-50
2021/10/16 06:02:26;;;;;;;7.03;2.33;;;9.90;99.90;;;;;;5001808;28;20676;-51
2021/10/16 06:04:53;;;;;;;5.60;2.30;;;9.90;99.90;;;;;;5008773;28;20232;-50
2021/10/16 06:07:20;;;;;;;9.43;2.90;;;9.90;99.90;;;;;;5008420;28;20632;-50
2021/10/16 06:09:47;;;;;;;7.23;3.27;;;10.00;99.90;;;;;;5006682;28;20238;-51
2021/10/16 06:12:13;;;;;;;4.47;2.53;;;9.90;99.90;;;;;;5009450;28;20673;-51
2021/10/16 06:14:41;;;;;;;6.73;2.50;;;9.90;99.90;;;;;;5009495;28;20205;-51
2021/10/16 06:17:08;;;;;;;10.13;3.03;;;9.90;99.90;;;;;;5009616;28;20212;-51
2021/10/16 06:19:35;;;;;;;5.33;2.13;;;9.90;99.90;;;;;;5008417;28;20586;-51
2021/10/16 06:22:02;;;;;;;13.33;2.73;;;9.80;99.90;;;;;;5009830;28;20228;-51
2021/10/16 06:24:29;;;;;;;8.07;2.60;;;9.80;99.90;;;;;;5009495;28;20240;-51
2021/10/16 06:26:56;;;;;;;8.03;2.57;;;9.90;99.90;;;;;;5008261;28;20201;-50
2021/10/16 06:29:23;;;;;;;6.73;2.03;;;10.00;99.90;;;;;;5010268;28;20201;-49
2021/10/16 06:31:49;;;;;;;8.33;2.27;;;9.90;99.90;;;;;;5009314;28;20233;-51
2021/10/16 06:34:16;;;;;;;9.47;2.30;;;10.10;99.90;;;;;;5010557;28;20232;-49
2021/10/16 06:36:43;;;;;;;5.33;2.60;;;9.90;99.90;;;;;;5006894;28;20236;-51
2021/10/16 06:39:10;;;;;;;7.67;2.93;;;10.00;99.90;;;;;;5009489;28;20624;-51
2021/10/16 06:41:37;;;;;;;5.80;2.53;;;10.00;99.90;;;;;;5006660;28;20201;-50
2021/10/16 06:44:04;;;;;;;6.80;2.47;;;10.00;93.60;;;;;;5008938;28;20200;-50
2021/10/16 06:46:31;;;;;;;4.20;2.00;;;9.90;99.90;;;;;;5006560;28;20788;-49
2021/10/16 06:48:57;;;;;;;9.53;2.27;;;9.80;99.90;;;;;;5007917;28;20197;-49
2021/10/16 06:51:24;;;;;;;5.23;2.33;;;9.80;99.90;;;;;;5006260;28;20523;-51
2021/10/16 06:53:51;;;;;;;10.17;2.70;;;9.70;99.90;;;;;;5008500;28;20240;-49
2021/10/16 06:56:18;;;;;;;8.23;2.70;;;9.70;99.90;;;;;;5008319;28;20296;-49
2021/10/16 06:58:44;;;;;;;8.27;2.30;;;9.90;99.90;;;;;;5009073;28;20220;-49
2021/10/16 07:01:12;;;;;;;5.63;2.30;;;10.10;99.90;;;;;;5008841;28;20200;-49
2021/10/16 07:03:39;;;;;;;8.80;2.20;;;10.10;99.90;;;;;;5007874;28;20216;-49
2021/10/16 07:06:09;;;;;;;8.87;2.80;;;10.10;66.10;;;;;;5007784;28;20205;-49
2021/10/16 07:08:36;;;;;;;5.10;2.60;;;9.80;84.20;;;;;;5009813;28;20204;-50
2021/10/16 07:11:03;;;;;;;9.17;2.60;;;9.90;99.90;;;;;;5008234;28;20269;-51
2021/10/16 07:13:30;;;;;;;8.37;2.53;;;10.00;99.90;;;;;;5008817;28;20198;-51
2021/10/16 07:15:58;;;;;;;8.07;2.53;;;10.10;99.90;;;;;;5007442;28;20209;-51
2021/10/16 07:18:27;;;;;;;9.10;2.20;;;10.30;99.90;;;;;;5009553;28;20761;-51
2021/10/16 07:20:54;;;;;;;7.33;2.53;;;10.30;99.90;;;;;;5007048;28;20335;-51
2021/10/16 07:23:41;;;;;;;8.33;2.73;;;10.30;99.90;;;;;;5008958;28;20243;-51
2021/10/16 07:26:08;;;;;;;14.40;3.03;;;10.40;99.90;;;;;;5006817;28;20186;-50
2021/10/16 07:28:34;;;;;;;4.73;2.80;;;10.30;95.70;;;;;;5009277;28;20581;-50
2021/10/16 07:31:01;;;;;;;7.83;2.70;;;10.40;96.10;;;;;;5007367;28;20247;-51
2021/10/16 07:33:28;;;;;;;9.63;3.17;;;10.50;99.90;;;;;;5008183;28;20206;-50
2021/10/16 07:35:55;;;;;;;8.10;2.63;;;10.40;99.90;;;;;;5007664;28;20263;-50
2021/10/16 07:38:22;;;;;;;11.43;2.97;;;10.50;91.50;;;;;;5008714;28;20314;-51
2021/10/16 07:40:49;;;;;;;10.30;2.80;;;10.50;59.90;;;;;;5008025;28;20221;-51
2021/10/16 07:43:15;;;;;;;7.87;3.07;;;10.40;11.10;;;;;;5008250;28;20236;-50
2021/10/16 07:45:43;;;;;;;7.70;2.63;;;10.20;90.20;;;;;;5003090;28;20210;-49
2021/10/16 07:48:13;;;;;;;9.90;2.67;;;10.40;99.90;;;;;;5006334;28;20194;-51
2021/10/16 07:50:40;;;;;;;8.10;4.13;;;10.50;92.10;;;;;;5004761;28;20236;-51
2021/10/16 07:53:07;;;;;;;5.77;2.80;;;10.30;99.90;;;;;;5006546;28;20230;-49
2021/10/16 07:55:33;;;;;;;5.73;2.33;;;10.50;99.90;;;;;;5004794;28;22275;-51
2021/10/16 07:58:00;;;;;;;8.07;2.80;;;10.60;86.40;;;;;;5008387;28;20272;-48
2021/10/16 08:00:27;;;;;;;12.30;2.60;;;10.60;54.60;;;;;;5009104;28;20197;-51
2021/10/16 08:02:54;;;;;;;9.60;3.13;;;10.50;1.00;;;;;;5012482;28;20209;-51
2021/10/16 08:05:21;;;;;;;9.77;2.73;;;10.20;13.40;;;;;;5010808;28;20239;-51
2021/10/16 08:07:49;;;;;;;10.33;3.30;;;10.10;99.90;;;;;;5010320;28;20233;-51
2021/10/16 08:10:16;;;;;;;7.97;2.67;;;10.20;99.90;;;;;;5010844;28;20225;-50
2021/10/16 08:12:42;;;;;;;6.70;3.53;;;10.30;99.90;;;;;;5008598;28;20686;-51
2021/10/16 08:15:11;;;;;;;10.07;2.93;;;10.30;99.90;;;;;;5008740;28;20202;-51
2021/10/16 08:17:38;;;;;;;5.93;2.90;;;10.40;99.90;;;;;;5008039;28;20253;-50
2021/10/16 08:20:05;;;;;;;11.10;2.67;;;10.40;99.90;;;;;;5008785;28;20202;-51
2021/10/16 08:22:32;;;;;;;10.27;2.80;;;10.50;99.90;;;;;;5009338;28;20225;-51
2021/10/16 08:24:59;;;;;;;9.87;3.40;;;10.50;99.90;;;;;;5011655;28;20242;-51
2021/10/16 08:27:26;;;;;;;9.67;2.97;;;10.70;99.90;;;;;;5011794;28;20628;-51
2021/10/16 08:29:52;;;;;;;7.10;2.93;;;10.80;99.90;;;;;;5012117;28;20308;-50
2021/10/16 08:32:20;;;;;;;6.70;3.37;;;10.80;99.90;;;;;;5010033;28;20226;-50
2021/10/16 08:34:47;;;;;;;7.03;3.37;;;10.80;99.90;;;;;;5009657;28;20207;-51
2021/10/16 08:37:14;;;;;;;9.53;3.63;;;10.90;99.90;;;;;;5008690;28;20228;-51
2021/10/16 08:39:41;;;;;;;9.03;3.00;;;10.90;99.90;;;;;;5010461;28;20580;-51
2021/10/16 08:42:12;;;;;;;12.40;3.37;;;11.00;99.90;;;;;;5009904;28;20198;-53
2021/10/16 08:44:42;;;;;;;8.00;3.20;;;11.10;99.90;;;;;;5008273;28;20211;-51
2021/10/16 08:47:11;;;;;;;6.43;3.20;;;10.90;96.30;;;;;;5006479;28;20247;-51
2021/10/16 08:49:38;;;;;;;6.60;3.03;;;10.80;99.90;;;;;;5005588;28;20221;-51
2021/10/16 08:52:05;;;;;;;7.10;2.97;;;10.90;99.90;;;;;;5002939;28;20237;-51
2021/10/16 08:54:35;;;;;;;6.83;2.70;;;11.00;99.90;;;;;;5003515;28;20676;-49
2021/10/16 08:57:02;;;;;;;10.37;3.10;;;11.00;99.90;;;;;;5007697;28;20205;-51
2021/10/16 08:59:28;;;;;;;8.43;3.60;;;11.00;99.90;;;;;;5003686;28;20689;-49
2021/10/16 09:02:07;;;;;;;11.80;3.27;;;11.10;99.90;;;;;;5001730;28;20842;-48
2021/10/16 09:04:36;;;;;;;7.30;2.90;;;11.20;99.90;;;;;;5007647;28;20229;-51
2021/10/16 09:07:21;;;;;;;9.43;3.17;;;11.30;99.90;;;;;;5001742;28;20302;-51
2021/10/16 09:09:49;;;;;;;6.87;3.13;;;11.30;94.80;;;;;;5001564;28;20284;-51
2021/10/16 09:12:17;;;;;;;8.10;3.00;;;11.30;99.90;;;;;;4999131;28;20206;-49
2021/10/16 09:14:51;;;;;;;8.57;3.50;;;11.30;92.00;;;;;;4998298;28;20232;-51
2021/10/16 09:17:18;;;;;;;7.20;2.90;;;11.10;99.90;;;;;;5002092;28;20257;-51
2021/10/16 09:19:46;;;;;;;7.63;3.57;;;11.20;99.90;;;;;;5000207;28;20263;-51
2021/10/16 09:22:19;;;;;;;8.37;2.93;;;11.40;99.90;;;;;;5000878;28;20205;-51
2021/10/16 09:24:48;;;;;;;9.83;3.57;;;11.30;99.90;;;;;;5000713;28;20206;-50
2021/10/16 09:27:22;;;;;;;6.33;3.63;;;11.10;99.90;;;;;;4997356;28;22756;-49
2021/10/16 09:30:02;;;;;;;9.37;3.93;;;11.20;54.30;;;;;;4999289;28;20305;-53
2021/10/16 09:32:33;;;;;;;11.90;3.80;;;11.20;46.40;;;;;;5006693;28;20205;-50
2021/10/16 09:35:05;;;;;;;5.00;3.23;;;11.20;99.90;;;;;;5006234;28;20661;-50
2021/10/16 09:37:32;;;;;;;11.73;3.60;;;11.10;1.00;;;;;;5002831;28;20314;-49
2021/10/16 09:40:01;;;;;;;7.10;3.13;;;11.20;39.50;;;;;;5000234;28;20224;-50
2021/10/16 09:42:33;;;;;;;8.00;3.23;;;11.30;5.00;;;;;;5001352;28;20654;-49
2021/10/16 09:45:02;;;;;;;9.83;3.40;;;11.30;21.40;;;;;;5003600;28;20557;-50
2021/10/16 09:47:29;;;;;;;13.67;3.50;;;11.40;1.00;;;;;;5005165;28;20214;-48
2021/10/16 09:50:15;;;;;;;6.20;3.47;;;11.20;1.00;;;;;;4998728;28;20211;-50
2021/10/16 09:52:43;;;;;;;10.03;3.53;;;11.10;1.00;;;;;;4997318;28;20284;-49
2021/10/16 09:55:13;;;;;;;8.73;3.07;;;11.10;1.00;;;;;;4997345;28;20613;-48
2021/10/16 09:57:45;;;;;;;9.57;3.30;;;11.20;1.00;;;;;;4998164;28;20205;-49
2021/10/16 10:00:14;;;;;;;9.33;3.07;;;11.20;1.00;;;;;;4995391;28;20847;-50
2021/10/16 10:02:45;;;;;;;12.03;3.73;;;11.40;1.00;;;;;;5002085;28;20726;-50
2021/10/16 10:05:12;;;;;;;10.37;3.10;;;11.30;1.00;;;;;;4996178;28;20261;-50
2021/10/16 10:07:40;;;;;;;13.60;4.20;;;11.20;1.00;;;;;;4996863;28;20204;-49
2021/10/16 10:10:08;;;;;;;12.40;3.47;;;11.30;1.00;;;;;;5001023;28;20206;-49
2021/10/16 10:12:37;;;;;;;7.60;3.53;;;11.40;1.00;;;;;;4995992;28;20278;-50
2021/10/16 10:15:05;;;;;;;9.93;3.57;;;11.50;1.00;;;;;;4999442;28;20220;-50
2021/10/16 10:17:33;;;;;;;12.53;3.80;;;11.60;1.00;;;;;;5005222;28;20200;-50
2021/10/16 10:20:05;;;;;;;10.97;3.63;;;11.60;1.00;;;;;;5003049;28;20286;-48
2021/10/16 10:22:34;;;;;;;13.03;3.80;;;11.40;1.00;;;;;;5002691;28;20646;-49
2021/10/16 10:25:03;;;;;;;13.17;4.20;;;11.50;1.00;;;;;;5002124;28;20705;-56
2021/10/16 10:27:44;;;;;;;5.43;2.70;;;11.50;1.00;;;;;;5005581;28;20224;-49
2021/10/16 10:30:36;;;;;;;10.23;3.13;;;11.70;1.00;;;;;;5004286;28;20223;-49
2021/10/16 10:33:15;;;;;;;10.73;3.20;;;11.70;1.00;;;;;;5003056;28;20213;-49
2021/10/16 10:35:54;;;;;;;8.87;3.33;;;11.70;1.00;;;;;;5006263;28;20202;-52
2021/10/16 10:38:29;;;;;;;17.73;3.67;;;11.90;1.00;;;;;;5001735;28;20213;-50
2021/10/16 10:40:56;;;;;;;8.40;3.33;;;12.00;1.00;;;;;;5006812;28;20215;-50
2021/10/16 10:43:41;;;;;;;8.63;3.53;;;12.10;1.00;;;;;;5003812;28;20205;-49
2021/10/16 10:46:13;;;;;;;7.90;3.30;;;12.00;1.00;;;;;;5007240;28;20220;-49
2021/10/16 10:48:43;;;;;;;8.73;3.20;;;12.10;1.00;;;;;;5006408;28;20311;-49
2021/10/16 10:51:33;;;;;;;7.47;3.77;;;12.10;1.00;;;;;;5002770;28;20193;-49
2021/10/16 10:54:21;;;;;;;6.93;3.20;;;12.20;1.00;;;;;;5003782;28;20233;-50
2021/10/16 10:56:57;;;;;;;11.30;3.43;;;12.40;1.00;;;;;;5005802;28;20200;-50
2021/10/16 10:59:24;;;;;;;8.40;3.27;;;12.40;99.90;;;;;;5006381;28;20218;-48
2021/10/16 11:02:03;;;;;;;13.30;3.80;;;12.60;1.00;;;;;;5003998;28;20294;-51
2021/10/16 11:04:31;;;;;;;6.77;2.93;;;12.80;99.90;;;;;;5004453;28;20210;-51
2021/10/16 11:07:02;;;;;;;7.77;3.13;;;12.90;99.90;;;;;;5003740;28;20573;-52
2021/10/16 11:09:29;;;;;;;6.77;3.27;;;12.80;1.00;;;;;;5003349;28;20201;-51
2021/10/16 11:11:56;;;;;;;8.37;3.43;;;13.00;1.00;;;;;;5002374;28;20537;-52
2021/10/16 11:14:34;;;;;;;10.50;3.20;;;12.90;1.00;;;;;;5003590;28;20525;-49
2021/10/16 11:17:04;;;;;;;10.03;3.17;;;13.00;1.00;;;;;;5003002;28;20206;-50
2021/10/16 11:19:54;;;;;;;10.67;3.17;;;13.00;1.00;;;;;;5003290;28;20298;-52
2021/10/16 11:22:37;;;;;;;8.03;4.30;;;13.00;50.20;;;;;;5003744;28;20648;-51
2021/10/16 11:25:05;;;;;;;10.93;3.47;;;13.00;99.90;;;;;;5000044;28;20194;-50
2021/10/16 11:27:31;;;;;;;10.20;3.70;;;13.00;1.00;;;;;;5004525;28;20215;-50
2021/10/16 11:29:58;;;;;;;8.90;3.23;;;13.40;1.00;;;;;;5003633;28;20282;-50
2021/10/16 11:32:26;;;;;;;4.83;2.43;;;13.90;99.90;;;;;;5007364;28;20234;-51
2021/10/16 11:35:03;;;;;;;8.27;3.20;;;13.90;1.00;;;;;;5006396;28;21221;-49
2021/10/16 11:37:47;;;;;;;8.03;3.80;;;13.70;1.00;;;;;;5006842;28;20256;-48
2021/10/16 11:40:16;;;;;;;8.43;2.20;;;14.20;1.00;;;;;;5001900;28;20264;-49
2021/10/16 11:43:01;;;;;;;6.30;2.63;;;14.30;28.10;;;;;;5006162;28;20195;-50
2021/10/16 11:45:30;;;;;;;11.67;2.40;;;14.30;99.90;;;;;;5007580;28;20257;-50
2021/10/16 11:48:00;;;;;;;8.00;2.47;;;14.40;55.30;;;;;;5007099;28;20204;-49
2021/10/16 11:50:32;;;;;;;7.43;2.63;;;14.20;1.00;;;;;;5006706;28;20423;-49
2021/10/16 11:53:19;;;;;;;10.27;2.63;;;14.50;1.00;;;;;;5002987;28;20294;-50
2021/10/16 11:55:53;;;;;;;7.83;2.43;;;14.40;99.90;;;;;;5005688;28;20584;-49
2021/10/16 11:58:22;;;;;;;5.27;2.30;;;14.50;99.90;;;;;;4995156;28;20310;-49
2021/10/16 12:01:00;;;;;;;5.73;2.07;;;14.50;1.00;;;;;;5004927;28;20200;-50
2021/10/16 12:03:33;;;;;;;7.60;2.23;;;14.70;1.00;;;;;;5003947;28;20628;-50
2021/10/16 12:06:10;;;;;;;6.13;1.77;;;14.60;1.00;;;;;;5005678;28;20199;-51
2021/10/16 12:08:51;;;;;;;6.40;2.23;;;14.60;99.90;;;;;;5003252;28;20224;-48
2021/10/16 12:11:19;;;;;;;7.90;2.50;;;14.40;99.90;;;;;;5004635;28;20267;-51
2021/10/16 12:14:06;;;;;;;6.87;2.17;;;14.30;99.90;;;;;;5004669;28;20199;-50
2021/10/16 12:16:38;;;;;;;7.63;2.80;;;14.20;99.90;;;;;;5004618;28;20221;-52
2021/10/16 12:19:14;;;;;;;4.93;1.90;;;14.50;1.00;;;;;;5000768;28;20302;-49
2021/10/16 12:21:43;;;;;;;7.93;2.67;;;14.20;1.00;;;;;;5004261;28;20724;-50
2021/10/16 12:24:13;;;;;;;4.80;1.87;;;14.40;1.00;;;;;;5002780;28;20205;-50
2021/10/16 12:26:42;;;;;;;6.83;1.90;;;14.10;1.00;;;;;;5012205;28;20715;-52
2021/10/16 12:29:27;;;;;;;8.97;1.87;;;14.30;1.00;;;;;;5001502;28;20197;-51
2021/10/16 12:31:54;;;;;;;6.77;2.03;;;14.40;1.00;;;;;;5006695;28;20232;-50
2021/10/16 12:34:28;;;;;;;4.47;1.90;;;14.50;1.00;;;;;;5002785;28;20194;-48
2021/10/16 12:37:06;;;;;;;5.27;2.00;;;14.60;99.90;;;;;;5005705;28;20326;-51
2021/10/16 12:39:33;;;;;;;5.37;1.93;;;14.60;1.00;;;;;;5003342;28;20271;-51
2021/10/16 12:42:07;;;;;;;7.43;2.30;;;14.50;1.00;;;;;;5006773;28;21504;-51
2021/10/16 12:44:37;;;;;;;7.23;2.40;;;14.40;99.90;;;;;;5003892;28;20209;-51
2021/10/16 12:47:15;;;;;;;3.50;2.00;;;14.60;1.00;;;;;;5006377;28;20202;-51
2021/10/16 12:49:46;;;;;;;5.63;2.43;;;14.70;99.90;;;;;;5007083;28;20208;-48
2021/10/16 12:52:44;;;;;;;5.27;1.63;;;14.70;1.00;;;;;;5010094;28;20241;-49
2021/10/16 12:55:11;;;;;;;5.87;1.60;;;14.60;99.90;;;;;;4991123;28;20213;-48
2021/10/16 12:57:57;;;;;;;7.10;1.80;;;14.60;1.00;;;;;;5010647;28;20209;-51
2021/10/16 13:00:44;;;;;;;7.90;1.77;;;14.60;99.90;;;;;;5017174;28;20212;-51
2021/10/16 13:03:13;;;;;;;3.80;1.23;;;14.50;1.00;;;;;;5007205;28;20190;-48